Terminal Aerodrome Forecast
Issued by NWS Twin Cities, MN

Home | Current Version | Previous Version | Text Only | Print | Product List | Glossary On
Versions: 1 2 3 4 5 6 7 8 9 10 11 12 13 14 15 16 17
124
FTUS43 KMPX 301121
TAFEAU
TAF
KEAU 301121Z 3012/3112 VRB04KT P6SM SCT050
     FM301700 13005KT P6SM SCT100
      TEMPO 3109/3112 2SM BR=

USA.gov is the U.S. government's official web portal to all federal, state and local government web resources and services.